sensor_id;sensor_type;location;lat;lon;timestamp;temperature;humidity
10536;DHT22;5316;49.538;8.352;2022-08-19T00:00:48;21.50;99.90
10536;DHT22;5316;49.538;8.352;2022-08-19T00:03:17;21.50;99.90
10536;DHT22;5316;49.538;8.352;2022-08-19T00:05:44;21.50;99.90
10536;DHT22;5316;49.538;8.352;2022-08-19T00:08:11;21.50;99.90
10536;DHT22;5316;49.538;8.352;2022-08-19T00:10:37;21.60;99.90
10536;DHT22;5316;49.538;8.352;2022-08-19T00:13:04;21.60;99.90
10536;DHT22;5316;49.538;8.352;2022-08-19T00:15:31;21.60;99.90
10536;DHT22;5316;49.538;8.352;2022-08-19T00:17:58;21.60;99.90
10536;DHT22;5316;49.538;8.352;2022-08-19T00:20:26;21.70;99.90
10536;DHT22;5316;49.538;8.352;2022-08-19T00:22:53;21.70;99.90
10536;DHT22;5316;49.538;8.352;2022-08-19T00:25:20;21.70;99.90
10536;DHT22;5316;49.538;8.352;2022-08-19T00:27:46;21.70;99.90
10536;DHT22;5316;49.538;8.352;2022-08-19T00:30:13;21.70;99.90
10536;DHT22;5316;49.538;8.352;2022-08-19T00:32:40;21.70;99.90
10536;DHT22;5316;49.538;8.352;2022-08-19T00:35:08;21.60;99.90
10536;DHT22;5316;49.538;8.352;2022-08-19T00:37:37;21.60;99.90
10536;DHT22;5316;49.538;8.352;2022-08-19T00:40:05;21.60;99.90
10536;DHT22;5316;49.538;8.352;2022-08-19T00:42:32;21.60;99.90
10536;DHT22;5316;49.538;8.352;2022-08-19T00:44:59;21.60;99.90
10536;DHT22;5316;49.538;8.352;2022-08-19T00:47:26;21.60;99.90
10536;DHT22;5316;49.538;8.352;2022-08-19T00:49:56;21.50;99.90
10536;DHT22;5316;49.538;8.352;2022-08-19T00:52:27;21.50;99.90
10536;DHT22;5316;49.538;8.352;2022-08-19T00:54:57;21.40;99.90
10536;DHT22;5316;49.538;8.352;2022-08-19T00:57:28;21.40;99.90
10536;DHT22;5316;49.538;8.352;2022-08-19T00:59:57;21.40;99.90
10536;DHT22;5316;49.538;8.352;2022-08-19T01:02:25;21.40;99.90
10536;DHT22;5316;49.538;8.352;2022-08-19T01:04:52;21.40;99.90
10536;DHT22;5316;49.538;8.352;2022-08-19T01:07:19;21.40;99.90
10536;DHT22;5316;49.538;8.352;2022-08-19T01:09:46;21.40;99.90
10536;DHT22;5316;49.538;8.352;2022-08-19T01:12:14;21.40;99.90
10536;DHT22;5316;49.538;8.352;2022-08-19T01:14:42;21.50;99.90
10536;DHT22;5316;49.538;8.352;2022-08-19T01:17:09;21.50;99.90
10536;DHT22;5316;49.538;8.352;2022-08-19T01:19:39;21.50;99.90
10536;DHT22;5316;49.538;8.352;2022-08-19T01:22:11;21.60;99.90
10536;DHT22;5316;49.538;8.352;2022-08-19T01:24:40;21.50;99.90
10536;DHT22;5316;49.538;8.352;2022-08-19T01:27:07;21.50;99.90
10536;DHT22;5316;49.538;8.352;2022-08-19T01:29:37;21.50;99.90
10536;DHT22;5316;49.538;8.352;2022-08-19T01:32:05;21.60;99.90
10536;DHT22;5316;49.538;8.352;2022-08-19T01:34:32;21.60;99.90
10536;DHT22;5316;49.538;8.352;2022-08-19T01:36:59;21.60;99.90
10536;DHT22;5316;49.538;8.352;2022-08-19T01:39:27;21.60;99.90
10536;DHT22;5316;49.538;8.352;2022-08-19T01:41:55;21.60;99.90
10536;DHT22;5316;49.538;8.352;2022-08-19T01:44:22;21.60;99.90
10536;DHT22;5316;49.538;8.352;2022-08-19T01:46:51;21.60;99.90
10536;DHT22;5316;49.538;8.352;2022-08-19T01:49:20;21.60;99.90
10536;DHT22;5316;49.538;8.352;2022-08-19T01:51:48;21.60;99.90
10536;DHT22;5316;49.538;8.352;2022-08-19T01:54:16;21.60;99.90
10536;DHT22;5316;49.538;8.352;2022-08-19T01:56:43;21.60;99.90
10536;DHT22;5316;49.538;8.352;2022-08-19T01:59:13;21.60;99.90
10536;DHT22;5316;49.538;8.352;2022-08-19T02:01:41;21.60;99.90
10536;DHT22;5316;49.538;8.352;2022-08-19T02:04:08;21.60;99.90
10536;DHT22;5316;49.538;8.352;2022-08-19T02:06:35;21.60;99.90
10536;DHT22;5316;49.538;8.352;2022-08-19T02:09:02;21.60;99.90
10536;DHT22;5316;49.538;8.352;2022-08-19T02:11:31;21.60;99.90
10536;DHT22;5316;49.538;8.352;2022-08-19T02:14:00;21.60;99.90
10536;DHT22;5316;49.538;8.352;2022-08-19T02:16:28;21.60;99.90
10536;DHT22;5316;49.538;8.352;2022-08-19T02:18:56;21.50;99.90
10536;DHT22;5316;49.538;8.352;2022-08-19T02:21:23;21.50;99.90
10536;DHT22;5316;49.538;8.352;2022-08-19T02:23:51;21.50;99.90
10536;DHT22;5316;49.538;8.352;2022-08-19T02:26:18;21.50;99.90
10536;DHT22;5316;49.538;8.352;2022-08-19T02:28:45;21.50;99.90
10536;DHT22;5316;49.538;8.352;2022-08-19T02:31:16;21.50;99.90
10536;DHT22;5316;49.538;8.352;2022-08-19T02:33:44;21.50;99.90
10536;DHT22;5316;49.538;8.352;2022-08-19T02:36:13;21.50;99.90
10536;DHT22;5316;49.538;8.352;2022-08-19T02:38:40;21.50;99.90
10536;DHT22;5316;49.538;8.352;2022-08-19T02:41:10;21.40;99.90
10536;DHT22;5316;49.538;8.352;2022-08-19T02:43:38;21.40;99.90
10536;DHT22;5316;49.538;8.352;2022-08-19T02:46:12;21.30;99.90
10536;DHT22;5316;49.538;8.352;2022-08-19T02:48:39;21.20;99.90
10536;DHT22;5316;49.538;8.352;2022-08-19T02:51:06;21.20;99.90
10536;DHT22;5316;49.538;8.352;2022-08-19T02:53:33;21.20;99.90
10536;DHT22;5316;49.538;8.352;2022-08-19T02:56:00;21.20;99.90
10536;DHT22;5316;49.538;8.352;2022-08-19T02:58:27;21.20;99.90
10536;DHT22;5316;49.538;8.352;2022-08-19T03:00:55;21.10;99.90
10536;DHT22;5316;49.538;8.352;2022-08-19T03:03:22;21.20;99.90
10536;DHT22;5316;49.538;8.352;2022-08-19T03:05:49;21.10;99.90
10536;DHT22;5316;49.538;8.352;2022-08-19T03:08:17;21.10;99.90
10536;DHT22;5316;49.538;8.352;2022-08-19T03:10:45;21.10;99.90
10536;DHT22;5316;49.538;8.352;2022-08-19T03:13:13;21.20;99.90
10536;DHT22;5316;49.538;8.352;2022-08-19T03:15:41;21.20;99.90
10536;DHT22;5316;49.538;8.352;2022-08-19T03:18:08;21.20;99.90
10536;DHT22;5316;49.538;8.352;2022-08-19T03:20:40;21.20;99.90
10536;DHT22;5316;49.538;8.352;2022-08-19T03:23:07;21.10;99.90
10536;DHT22;5316;49.538;8.352;2022-08-19T03:25:38;21.20;99.90
10536;DHT22;5316;49.538;8.352;2022-08-19T03:28:07;21.20;99.90
10536;DHT22;5316;49.538;8.352;2022-08-19T03:30:34;21.10;99.90
10536;DHT22;5316;49.538;8.352;2022-08-19T03:33:03;21.10;99.90
10536;DHT22;5316;49.538;8.352;2022-08-19T03:35:29;21.10;99.90
10536;DHT22;5316;49.538;8.352;2022-08-19T03:37:58;21.10;99.90
10536;DHT22;5316;49.538;8.352;2022-08-19T03:40:25;21.10;99.90
10536;DHT22;5316;49.538;8.352;2022-08-19T03:42:53;21.00;99.90
10536;DHT22;5316;49.538;8.352;2022-08-19T03:45:20;21.10;99.90
10536;DHT22;5316;49.538;8.352;2022-08-19T03:47:46;21.10;99.90
10536;DHT22;5316;49.538;8.352;2022-08-19T03:50:13;21.10;99.90
10536;DHT22;5316;49.538;8.352;2022-08-19T03:52:40;21.10;99.90
10536;DHT22;5316;49.538;8.352;2022-08-19T03:55:07;21.10;99.90
10536;DHT22;5316;49.538;8.352;2022-08-19T03:57:34;21.10;99.90
10536;DHT22;5316;49.538;8.352;2022-08-19T04:00:04;21.10;99.90
10536;DHT22;5316;49.538;8.352;2022-08-19T04:02:32;21.10;99.90
10536;DHT22;5316;49.538;8.352;2022-08-19T04:04:58;21.00;99.90
10536;DHT22;5316;49.538;8.352;2022-08-19T04:07:25;21.00;99.90
10536;DHT22;5316;49.538;8.352;2022-08-19T04:09:52;21.00;99.90
10536;DHT22;5316;49.538;8.352;2022-08-19T04:12:19;21.00;99.90
10536;DHT22;5316;49.538;8.352;2022-08-19T04:14:47;21.00;99.90
10536;DHT22;5316;49.538;8.352;2022-08-19T04:17:14;21.00;99.90
10536;DHT22;5316;49.538;8.352;2022-08-19T04:19:41;21.00;99.90
10536;DHT22;5316;49.538;8.352;2022-08-19T04:22:09;21.00;99.90
10536;DHT22;5316;49.538;8.352;2022-08-19T04:24:36;21.00;99.90
10536;DHT22;5316;49.538;8.352;2022-08-19T04:27:05;21.00;99.90
10536;DHT22;5316;49.538;8.352;2022-08-19T04:29:33;21.00;99.90
10536;DHT22;5316;49.538;8.352;2022-08-19T04:32:00;21.00;99.90
10536;DHT22;5316;49.538;8.352;2022-08-19T04:34:28;21.00;99.90
10536;DHT22;5316;49.538;8.352;2022-08-19T04:36:58;21.00;99.90
10536;DHT22;5316;49.538;8.352;2022-08-19T04:39:27;21.00;99.90
10536;DHT22;5316;49.538;8.352;2022-08-19T04:42:15;21.00;99.90
10536;DHT22;5316;49.538;8.352;2022-08-19T04:45:00;21.00;99.90
10536;DHT22;5316;49.538;8.352;2022-08-19T04:47:29;21.00;99.90
10536;DHT22;5316;49.538;8.352;2022-08-19T04:49:58;21.00;99.90
10536;DHT22;5316;49.538;8.352;2022-08-19T04:52:24;21.00;99.90
10536;DHT22;5316;49.538;8.352;2022-08-19T04:54:51;21.00;99.90
10536;DHT22;5316;49.538;8.352;2022-08-19T04:57:18;21.00;99.90
10536;DHT22;5316;49.538;8.352;2022-08-19T04:59:44;21.00;99.90
10536;DHT22;5316;49.538;8.352;2022-08-19T05:02:11;21.00;99.90
10536;DHT22;5316;49.538;8.352;2022-08-19T05:04:38;21.00;99.90
10536;DHT22;5316;49.538;8.352;2022-08-19T05:07:07;21.00;99.90
10536;DHT22;5316;49.538;8.352;2022-08-19T05:09:34;21.00;99.90
10536;DHT22;5316;49.538;8.352;2022-08-19T05:12:01;21.10;99.90
10536;DHT22;5316;49.538;8.352;2022-08-19T05:14:28;21.10;99.90
10536;DHT22;5316;49.538;8.352;2022-08-19T05:16:55;21.10;99.90
10536;DHT22;5316;49.538;8.352;2022-08-19T05:19:21;21.20;99.90
10536;DHT22;5316;49.538;8.352;2022-08-19T05:22:07;21.20;99.90
10536;DHT22;5316;49.538;8.352;2022-08-19T05:24:51;21.20;99.90
10536;DHT22;5316;49.538;8.352;2022-08-19T05:27:18;21.30;99.90
10536;DHT22;5316;49.538;8.352;2022-08-19T05:29:45;21.30;99.90
10536;DHT22;5316;49.538;8.352;2022-08-19T05:32:11;21.30;99.90
10536;DHT22;5316;49.538;8.352;2022-08-19T05:34:38;21.30;99.90
10536;DHT22;5316;49.538;8.352;2022-08-19T05:37:07;21.30;99.90
10536;DHT22;5316;49.538;8.352;2022-08-19T05:39:35;21.30;99.90
10536;DHT22;5316;49.538;8.352;2022-08-19T05:42:04;21.40;99.90
10536;DHT22;5316;49.538;8.352;2022-08-19T05:44:34;21.40;99.90
10536;DHT22;5316;49.538;8.352;2022-08-19T05:47:03;21.50;99.90
10536;DHT22;5316;49.538;8.352;2022-08-19T05:49:34;21.60;99.90
10536;DHT22;5316;49.538;8.352;2022-08-19T05:52:02;21.60;99.90
10536;DHT22;5316;49.538;8.352;2022-08-19T05:54:31;21.60;99.90
10536;DHT22;5316;49.538;8.352;2022-08-19T05:56:59;21.60;99.90
10536;DHT22;5316;49.538;8.352;2022-08-19T05:59:26;21.60;99.90
10536;DHT22;5316;49.538;8.352;2022-08-19T06:01:54;21.60;99.90
10536;DHT22;5316;49.538;8.352;2022-08-19T06:04:22;21.70;99.90
10536;DHT22;5316;49.538;8.352;2022-08-19T06:06:51;21.70;99.90
10536;DHT22;5316;49.538;8.352;2022-08-19T06:09:19;21.70;99.90
10536;DHT22;5316;49.538;8.352;2022-08-19T06:11:49;21.70;99.90
10536;DHT22;5316;49.538;8.352;2022-08-19T06:14:21;21.70;99.90
10536;DHT22;5316;49.538;8.352;2022-08-19T06:16:49;21.80;99.90
10536;DHT22;5316;49.538;8.352;2022-08-19T06:19:20;21.80;99.90
10536;DHT22;5316;49.538;8.352;2022-08-19T06:21:49;21.80;99.90
10536;DHT22;5316;49.538;8.352;2022-08-19T06:24:19;21.90;99.90
10536;DHT22;5316;49.538;8.352;2022-08-19T06:26:51;21.80;99.90
10536;DHT22;5316;49.538;8.352;2022-08-19T06:29:20;21.80;99.90
10536;DHT22;5316;49.538;8.352;2022-08-19T06:31:51;21.90;99.90
10536;DHT22;5316;49.538;8.352;2022-08-19T06:34:18;21.90;99.90
10536;DHT22;5316;49.538;8.352;2022-08-19T06:36:48;22.00;99.90
10536;DHT22;5316;49.538;8.352;2022-08-19T06:39:17;22.00;99.90
10536;DHT22;5316;49.538;8.352;2022-08-19T06:41:46;22.10;99.90
10536;DHT22;5316;49.538;8.352;2022-08-19T06:44:15;22.10;99.90
10536;DHT22;5316;49.538;8.352;2022-08-19T06:46:42;22.20;99.90
10536;DHT22;5316;49.538;8.352;2022-08-19T06:49:09;22.30;99.90
10536;DHT22;5316;49.538;8.352;2022-08-19T06:51:40;22.30;99.90
10536;DHT22;5316;49.538;8.352;2022-08-19T06:54:07;22.30;99.90
10536;DHT22;5316;49.538;8.352;2022-08-19T06:56:34;22.40;99.90
10536;DHT22;5316;49.538;8.352;2022-08-19T06:59:01;22.40;99.90
10536;DHT22;5316;49.538;8.352;2022-08-19T07:01:30;22.50;99.90
10536;DHT22;5316;49.538;8.352;2022-08-19T07:03:56;22.50;99.90
10536;DHT22;5316;49.538;8.352;2022-08-19T07:06:23;22.60;99.90
10536;DHT22;5316;49.538;8.352;2022-08-19T07:08:50;22.70;99.90
10536;DHT22;5316;49.538;8.352;2022-08-19T07:11:18;22.70;99.90
10536;DHT22;5316;49.538;8.352;2022-08-19T07:13:46;22.70;99.90
10536;DHT22;5316;49.538;8.352;2022-08-19T07:16:15;22.80;99.90
10536;DHT22;5316;49.538;8.352;2022-08-19T07:18:43;22.80;99.90
10536;DHT22;5316;49.538;8.352;2022-08-19T07:21:14;22.80;99.90
10536;DHT22;5316;49.538;8.352;2022-08-19T07:23:42;22.80;99.90
10536;DHT22;5316;49.538;8.352;2022-08-19T07:26:12;22.80;99.90
10536;DHT22;5316;49.538;8.352;2022-08-19T07:28:39;22.80;99.90
10536;DHT22;5316;49.538;8.352;2022-08-19T07:31:10;22.90;99.90
10536;DHT22;5316;49.538;8.352;2022-08-19T07:33:37;22.90;99.90
10536;DHT22;5316;49.538;8.352;2022-08-19T07:36:08;22.90;99.90
10536;DHT22;5316;49.538;8.352;2022-08-19T07:38:37;23.00;99.90
10536;DHT22;5316;49.538;8.352;2022-08-19T07:41:05;23.10;99.90
10536;DHT22;5316;49.538;8.352;2022-08-19T07:43:32;23.20;99.90
10536;DHT22;5316;49.538;8.352;2022-08-19T07:45:59;23.30;99.90
10536;DHT22;5316;49.538;8.352;2022-08-19T07:48:27;23.40;99.90
10536;DHT22;5316;49.538;8.352;2022-08-19T07:50:54;23.40;99.90
10536;DHT22;5316;49.538;8.352;2022-08-19T07:53:24;23.50;99.90
10536;DHT22;5316;49.538;8.352;2022-08-19T07:55:51;23.60;99.90
10536;DHT22;5316;49.538;8.352;2022-08-19T07:58:20;23.70;99.90
10536;DHT22;5316;49.538;8.352;2022-08-19T08:00:50;23.80;99.90
10536;DHT22;5316;49.538;8.352;2022-08-19T08:03:20;23.90;99.90
10536;DHT22;5316;49.538;8.352;2022-08-19T08:06:07;24.00;99.90
10536;DHT22;5316;49.538;8.352;2022-08-19T08:08:53;24.10;99.90
10536;DHT22;5316;49.538;8.352;2022-08-19T08:11:45;24.10;99.90
10536;DHT22;5316;49.538;8.352;2022-08-19T08:14:15;24.30;99.90
10536;DHT22;5316;49.538;8.352;2022-08-19T08:16:42;24.30;99.90
10536;DHT22;5316;49.538;8.352;2022-08-19T08:19:11;24.40;99.90
10536;DHT22;5316;49.538;8.352;2022-08-19T08:21:40;24.50;99.90
10536;DHT22;5316;49.538;8.352;2022-08-19T08:24:08;24.50;99.90
10536;DHT22;5316;49.538;8.352;2022-08-19T08:26:35;24.50;99.90
10536;DHT22;5316;49.538;8.352;2022-08-19T08:29:02;24.40;99.90
10536;DHT22;5316;49.538;8.352;2022-08-19T08:31:29;24.50;99.90
10536;DHT22;5316;49.538;8.352;2022-08-19T08:33:56;24.30;99.90
10536;DHT22;5316;49.538;8.352;2022-08-19T08:36:23;24.30;99.90
10536;DHT22;5316;49.538;8.352;2022-08-19T08:38:49;24.10;99.90
10536;DHT22;5316;49.538;8.352;2022-08-19T08:41:30;24.10;99.90
10536;DHT22;5316;49.538;8.352;2022-08-19T08:43:59;24.20;99.90
10536;DHT22;5316;49.538;8.352;2022-08-19T08:46:34;24.20;99.90
10536;DHT22;5316;49.538;8.352;2022-08-19T08:49:06;24.20;99.90
10536;DHT22;5316;49.538;8.352;2022-08-19T08:51:42;24.30;99.90
10536;DHT22;5316;49.538;8.352;2022-08-19T08:54:11;24.30;99.90
10536;DHT22;5316;49.538;8.352;2022-08-19T08:56:41;24.30;99.90
10536;DHT22;5316;49.538;8.352;2022-08-19T08:59:12;24.30;99.90
10536;DHT22;5316;49.538;8.352;2022-08-19T09:01:42;24.40;99.90
10536;DHT22;5316;49.538;8.352;2022-08-19T09:04:11;24.50;99.90
10536;DHT22;5316;49.538;8.352;2022-08-19T09:06:43;24.50;99.90
10536;DHT22;5316;49.538;8.352;2022-08-19T09:09:14;24.60;99.90
10536;DHT22;5316;49.538;8.352;2022-08-19T09:11:56;24.70;99.90
10536;DHT22;5316;49.538;8.352;2022-08-19T09:14:34;24.70;99.90
10536;DHT22;5316;49.538;8.352;2022-08-19T09:17:02;24.80;99.90
10536;DHT22;5316;49.538;8.352;2022-08-19T09:19:34;24.90;99.90
10536;DHT22;5316;49.538;8.352;2022-08-19T09:22:01;24.90;99.90
10536;DHT22;5316;49.538;8.352;2022-08-19T09:24:27;25.00;99.90
10536;DHT22;5316;49.538;8.352;2022-08-19T09:26:56;25.00;99.90
10536;DHT22;5316;49.538;8.352;2022-08-19T09:29:22;25.10;99.90
10536;DHT22;5316;49.538;8.352;2022-08-19T09:31:49;25.20;99.90
10536;DHT22;5316;49.538;8.352;2022-08-19T09:34:16;25.30;99.90
10536;DHT22;5316;49.538;8.352;2022-08-19T09:36:45;25.30;99.90
10536;DHT22;5316;49.538;8.352;2022-08-19T09:39:11;25.40;99.90
10536;DHT22;5316;49.538;8.352;2022-08-19T09:41:38;25.40;99.90
10536;DHT22;5316;49.538;8.352;2022-08-19T09:44:06;25.50;99.90
10536;DHT22;5316;49.538;8.352;2022-08-19T09:46:33;25.50;99.90
10536;DHT22;5316;49.538;8.352;2022-08-19T09:49:01;25.50;99.90
10536;DHT22;5316;49.538;8.352;2022-08-19T09:51:30;25.60;99.90
10536;DHT22;5316;49.538;8.352;2022-08-19T09:54:00;25.50;99.90
10536;DHT22;5316;49.538;8.352;2022-08-19T09:56:28;25.60;99.90
10536;DHT22;5316;49.538;8.352;2022-08-19T09:58:57;25.70;99.90
10536;DHT22;5316;49.538;8.352;2022-08-19T10:01:27;25.70;99.90
10536;DHT22;5316;49.538;8.352;2022-08-19T10:03:57;25.70;99.90
10536;DHT22;5316;49.538;8.352;2022-08-19T10:06:27;25.70;99.90
10536;DHT22;5316;49.538;8.352;2022-08-19T10:08:57;25.60;99.90
10536;DHT22;5316;49.538;8.352;2022-08-19T10:11:23;25.60;99.90
10536;DHT22;5316;49.538;8.352;2022-08-19T10:13:51;25.60;99.90
10536;DHT22;5316;49.538;8.352;2022-08-19T10:16:21;25.70;99.90
10536;DHT22;5316;49.538;8.352;2022-08-19T10:18:50;25.80;99.90
10536;DHT22;5316;49.538;8.352;2022-08-19T10:21:19;25.90;99.90
10536;DHT22;5316;49.538;8.352;2022-08-19T10:23:47;26.00;99.90
10536;DHT22;5316;49.538;8.352;2022-08-19T10:26:16;26.00;99.90
10536;DHT22;5316;49.538;8.352;2022-08-19T10:28:43;26.00;99.90
10536;DHT22;5316;49.538;8.352;2022-08-19T10:31:13;25.90;99.90
10536;DHT22;5316;49.538;8.352;2022-08-19T10:33:41;25.90;99.90
10536;DHT22;5316;49.538;8.352;2022-08-19T10:36:12;25.90;99.90
10536;DHT22;5316;49.538;8.352;2022-08-19T10:38:40;25.80;99.90
10536;DHT22;5316;49.538;8.352;2022-08-19T10:41:10;25.70;99.90
10536;DHT22;5316;49.538;8.352;2022-08-19T10:43:37;25.80;99.90
10536;DHT22;5316;49.538;8.352;2022-08-19T10:46:06;26.00;99.90
10536;DHT22;5316;49.538;8.352;2022-08-19T10:48:32;26.10;99.60
10536;DHT22;5316;49.538;8.352;2022-08-19T10:51:00;26.10;99.30
10536;DHT22;5316;49.538;8.352;2022-08-19T10:53:46;26.10;99.00
10536;DHT22;5316;49.538;8.352;2022-08-19T10:56:13;26.10;97.80
10536;DHT22;5316;49.538;8.352;2022-08-19T10:58:58;26.20;96.90
10536;DHT22;5316;49.538;8.352;2022-08-19T11:01:25;26.30;96.70
10536;DHT22;5316;49.538;8.352;2022-08-19T11:03:52;26.40;95.50
10536;DHT22;5316;49.538;8.352;2022-08-19T11:06:19;26.30;96.20
10536;DHT22;5316;49.538;8.352;2022-08-19T11:08:47;26.30;96.40
10536;DHT22;5316;49.538;8.352;2022-08-19T11:11:14;26.30;96.60
10536;DHT22;5316;49.538;8.352;2022-08-19T11:13:41;26.40;96.20
10536;DHT22;5316;49.538;8.352;2022-08-19T11:16:11;26.50;95.70
10536;DHT22;5316;49.538;8.352;2022-08-19T11:18:41;26.60;94.40
10536;DHT22;5316;49.538;8.352;2022-08-19T11:21:11;26.80;93.00
10536;DHT22;5316;49.538;8.352;2022-08-19T11:23:38;26.80;92.00
10536;DHT22;5316;49.538;8.352;2022-08-19T11:26:07;26.80;91.60
10536;DHT22;5316;49.538;8.352;2022-08-19T11:28:33;26.80;91.50
10536;DHT22;5316;49.538;8.352;2022-08-19T11:31:00;26.80;90.40
10536;DHT22;5316;49.538;8.352;2022-08-19T11:33:28;26.90;91.00
10536;DHT22;5316;49.538;8.352;2022-08-19T11:35:57;27.00;91.60
10536;DHT22;5316;49.538;8.352;2022-08-19T11:38:24;27.00;88.40
10536;DHT22;5316;49.538;8.352;2022-08-19T11:40:55;27.10;85.30
10536;DHT22;5316;49.538;8.352;2022-08-19T11:43:23;27.10;86.30
10536;DHT22;5316;49.538;8.352;2022-08-19T11:45:52;27.20;84.90
10536;DHT22;5316;49.538;8.352;2022-08-19T11:48:18;27.20;84.10
10536;DHT22;5316;49.538;8.352;2022-08-19T11:50:47;27.30;83.00
10536;DHT22;5316;49.538;8.352;2022-08-19T11:53:14;27.30;82.10
10536;DHT22;5316;49.538;8.352;2022-08-19T11:55:41;27.30;82.00
10536;DHT22;5316;49.538;8.352;2022-08-19T11:58:08;27.40;83.40
10536;DHT22;5316;49.538;8.352;2022-08-19T12:00:37;27.40;80.10
10536;DHT22;5316;49.538;8.352;2022-08-19T12:03:04;27.60;79.00
10536;DHT22;5316;49.538;8.352;2022-08-19T12:05:30;27.70;77.50
10536;DHT22;5316;49.538;8.352;2022-08-19T12:07:57;27.60;78.40
10536;DHT22;5316;49.538;8.352;2022-08-19T12:10:24;27.50;77.00
10536;DHT22;5316;49.538;8.352;2022-08-19T12:12:51;27.60;75.90
10536;DHT22;5316;49.538;8.352;2022-08-19T12:15:17;27.60;74.50
10536;DHT22;5316;49.538;8.352;2022-08-19T12:17:46;27.70;74.70
10536;DHT22;5316;49.538;8.352;2022-08-19T12:20:13;27.70;73.90
10536;DHT22;5316;49.538;8.352;2022-08-19T12:22:44;27.80;73.10
10536;DHT22;5316;49.538;8.352;2022-08-19T12:25:11;27.80;71.80
10536;DHT22;5316;49.538;8.352;2022-08-19T12:27:40;27.90;72.10
10536;DHT22;5316;49.538;8.352;2022-08-19T12:30:09;27.90;72.50
10536;DHT22;5316;49.538;8.352;2022-08-19T12:32:37;28.00;72.00
10536;DHT22;5316;49.538;8.352;2022-08-19T12:35:07;28.10;69.70
10536;DHT22;5316;49.538;8.352;2022-08-19T12:37:37;28.20;68.10
10536;DHT22;5316;49.538;8.352;2022-08-19T12:40:05;28.20;69.70
10536;DHT22;5316;49.538;8.352;2022-08-19T12:42:32;28.20;66.90
10536;DHT22;5316;49.538;8.352;2022-08-19T12:44:58;28.10;67.80
10536;DHT22;5316;49.538;8.352;2022-08-19T12:47:25;28.20;67.80
10536;DHT22;5316;49.538;8.352;2022-08-19T12:49:52;28.30;67.30
10536;DHT22;5316;49.538;8.352;2022-08-19T12:52:22;28.30;67.50
10536;DHT22;5316;49.538;8.352;2022-08-19T12:54:50;28.40;68.40
10536;DHT22;5316;49.538;8.352;2022-08-19T12:57:17;28.40;68.10
10536;DHT22;5316;49.538;8.352;2022-08-19T12:59:43;28.50;67.50
10536;DHT22;5316;49.538;8.352;2022-08-19T13:02:10;28.60;67.20
10536;DHT22;5316;49.538;8.352;2022-08-19T13:04:37;28.80;65.70
10536;DHT22;5316;49.538;8.352;2022-08-19T13:07:08;29.00;65.60
10536;DHT22;5316;49.538;8.352;2022-08-19T13:09:37;29.20;64.90
10536;DHT22;5316;49.538;8.352;2022-08-19T13:12:07;29.50;64.50
10536;DHT22;5316;49.538;8.352;2022-08-19T13:14:38;29.80;63.00
10536;DHT22;5316;49.538;8.352;2022-08-19T13:17:06;29.90;62.40
10536;DHT22;5316;49.538;8.352;2022-08-19T13:19:36;29.90;61.40
10536;DHT22;5316;49.538;8.352;2022-08-19T13:22:02;30.00;61.60
10536;DHT22;5316;49.538;8.352;2022-08-19T13:24:29;30.00;61.10
10536;DHT22;5316;49.538;8.352;2022-08-19T13:26:58;30.20;60.90
10536;DHT22;5316;49.538;8.352;2022-08-19T13:29:25;29.90;61.50
10536;DHT22;5316;49.538;8.352;2022-08-19T13:32:10;29.80;62.00
10536;DHT22;5316;49.538;8.352;2022-08-19T13:34:54;29.60;62.20
10536;DHT22;5316;49.538;8.352;2022-08-19T13:37:21;29.50;62.90
10536;DHT22;5316;49.538;8.352;2022-08-19T13:40:07;29.50;62.00
10536;DHT22;5316;49.538;8.352;2022-08-19T13:42:41;29.70;61.40
10536;DHT22;5316;49.538;8.352;2022-08-19T13:45:10;29.80;61.20
10536;DHT22;5316;49.538;8.352;2022-08-19T13:47:37;29.80;60.70
10536;DHT22;5316;49.538;8.352;2022-08-19T13:50:08;29.80;61.00
10536;DHT22;5316;49.538;8.352;2022-08-19T13:52:35;29.90;61.20
10536;DHT22;5316;49.538;8.352;2022-08-19T13:55:03;30.00;60.50
10536;DHT22;5316;49.538;8.352;2022-08-19T13:57:30;30.00;60.10
10536;DHT22;5316;49.538;8.352;2022-08-19T13:59:58;30.10;59.20
10536;DHT22;5316;49.538;8.352;2022-08-19T14:02:25;30.20;58.80
10536;DHT22;5316;49.538;8.352;2022-08-19T14:04:52;30.10;58.70
10536;DHT22;5316;49.538;8.352;2022-08-19T14:07:19;30.00;59.20
10536;DHT22;5316;49.538;8.352;2022-08-19T14:09:48;29.90;59.30
10536;DHT22;5316;49.538;8.352;2022-08-19T14:12:18;29.90;59.40
10536;DHT22;5316;49.538;8.352;2022-08-19T14:14:45;29.90;59.10
10536;DHT22;5316;49.538;8.352;2022-08-19T14:17:14;30.20;58.60
10536;DHT22;5316;49.538;8.352;2022-08-19T14:19:41;30.60;58.50
10536;DHT22;5316;49.538;8.352;2022-08-19T14:22:08;31.00;57.00
10536;DHT22;5316;49.538;8.352;2022-08-19T14:24:37;31.00;57.10
10536;DHT22;5316;49.538;8.352;2022-08-19T14:27:06;30.70;58.00
10536;DHT22;5316;49.538;8.352;2022-08-19T14:29:36;30.50;57.50
10536;DHT22;5316;49.538;8.352;2022-08-19T14:32:03;30.20;58.40
10536;DHT22;5316;49.538;8.352;2022-08-19T14:34:31;29.90;59.20
10536;DHT22;5316;49.538;8.352;2022-08-19T14:36:59;29.70;59.50
10536;DHT22;5316;49.538;8.352;2022-08-19T14:39:26;29.70;59.50
10536;DHT22;5316;49.538;8.352;2022-08-19T14:41:53;29.60;59.30
10536;DHT22;5316;49.538;8.352;2022-08-19T14:44:20;29.70;59.10
10536;DHT22;5316;49.538;8.352;2022-08-19T14:46:49;30.20;58.90
10536;DHT22;5316;49.538;8.352;2022-08-19T14:49:16;30.40;58.90
10536;DHT22;5316;49.538;8.352;2022-08-19T14:51:45;30.40;58.80
10536;DHT22;5316;49.538;8.352;2022-08-19T14:54:12;30.60;59.00
10536;DHT22;5316;49.538;8.352;2022-08-19T14:56:40;30.70;58.70
10536;DHT22;5316;49.538;8.352;2022-08-19T14:59:06;31.30;58.40
10536;DHT22;5316;49.538;8.352;2022-08-19T15:01:33;31.80;57.60
10536;DHT22;5316;49.538;8.352;2022-08-19T15:04:01;32.10;56.00
10536;DHT22;5316;49.538;8.352;2022-08-19T15:06:29;32.20;55.60
10536;DHT22;5316;49.538;8.352;2022-08-19T15:08:58;32.30;54.90
10536;DHT22;5316;49.538;8.352;2022-08-19T15:11:26;32.20;54.80
10536;DHT22;5316;49.538;8.352;2022-08-19T15:13:55;32.10;54.70
10536;DHT22;5316;49.538;8.352;2022-08-19T15:16:22;31.60;54.80
10536;DHT22;5316;49.538;8.352;2022-08-19T15:18:52;31.00;56.10
10536;DHT22;5316;49.538;8.352;2022-08-19T15:21:20;30.70;56.50
10536;DHT22;5316;49.538;8.352;2022-08-19T15:23:50;30.40;56.70
10536;DHT22;5316;49.538;8.352;2022-08-19T15:26:19;30.30;57.20
10536;DHT22;5316;49.538;8.352;2022-08-19T15:28:46;30.20;57.00
10536;DHT22;5316;49.538;8.352;2022-08-19T15:31:17;30.40;57.10
10536;DHT22;5316;49.538;8.352;2022-08-19T15:33:44;30.40;56.60
10536;DHT22;5316;49.538;8.352;2022-08-19T15:36:11;30.40;56.40
10536;DHT22;5316;49.538;8.352;2022-08-19T15:38:38;30.50;56.50
10536;DHT22;5316;49.538;8.352;2022-08-19T15:41:15;30.50;56.40
10536;DHT22;5316;49.538;8.352;2022-08-19T15:43:54;30.60;56.80
10536;DHT22;5316;49.538;8.352;2022-08-19T15:46:24;30.50;57.00
10536;DHT22;5316;49.538;8.352;2022-08-19T15:48:52;30.20;57.00
10536;DHT22;5316;49.538;8.352;2022-08-19T15:51:19;30.20;57.50
10536;DHT22;5316;49.538;8.352;2022-08-19T15:53:47;30.10;57.90